sensor_id;sensor_type;location;lat;lon;timestamp;temperature;humidity
7349;DHT22;13010;-33.424;-70.614;2023-04-06T00:00:39;15.50;99.90
7349;DHT22;13010;-33.424;-70.614;2023-04-06T00:03:28;15.10;99.90
7349;DHT22;13010;-33.424;-70.614;2023-04-06T00:06:17;14.80;99.90
7349;DHT22;13010;-33.424;-70.614;2023-04-06T00:09:06;14.60;99.90
7349;DHT22;13010;-33.424;-70.614;2023-04-06T00:11:57;14.30;99.90
7349;DHT22;13010;-33.424;-70.614;2023-04-06T00:14:46;14.10;99.90
7349;DHT22;13010;-33.424;-70.614;2023-04-06T00:17:34;13.90;99.90
7349;DHT22;13010;-33.424;-70.614;2023-04-06T00:20:24;13.70;99.90
7349;DHT22;13010;-33.424;-70.614;2023-04-06T00:23:12;13.50;99.90
7349;DHT22;13010;-33.424;-70.614;2023-04-06T00:26:01;14.10;99.90
7349;DHT22;13010;-33.424;-70.614;2023-04-06T00:28:51;13.70;99.90
7349;DHT22;13010;-33.424;-70.614;2023-04-06T00:31:40;13.30;99.90
7349;DHT22;13010;-33.424;-70.614;2023-04-06T00:34:29;13.00;99.90
7349;DHT22;13010;-33.424;-70.614;2023-04-06T00:37:17;12.80;99.90
7349;DHT22;13010;-33.424;-70.614;2023-04-06T00:40:07;12.80;99.90
7349;DHT22;13010;-33.424;-70.614;2023-04-06T00:42:56;13.00;99.90
7349;DHT22;13010;-33.424;-70.614;2023-04-06T00:45:46;13.00;99.90
7349;DHT22;13010;-33.424;-70.614;2023-04-06T00:48:35;12.90;99.90
7349;DHT22;13010;-33.424;-70.614;2023-04-06T00:51:23;12.80;99.90
7349;DHT22;13010;-33.424;-70.614;2023-04-06T00:54:12;12.60;99.90
7349;DHT22;13010;-33.424;-70.614;2023-04-06T00:57:02;12.50;99.90
7349;DHT22;13010;-33.424;-70.614;2023-04-06T00:59:51;12.40;99.90
7349;DHT22;13010;-33.424;-70.614;2023-04-06T01:02:42;12.30;99.90
7349;DHT22;13010;-33.424;-70.614;2023-04-06T01:05:33;12.30;99.90
7349;DHT22;13010;-33.424;-70.614;2023-04-06T01:08:26;12.20;99.90
7349;DHT22;13010;-33.424;-70.614;2023-04-06T01:11:15;12.20;99.90
7349;DHT22;13010;-33.424;-70.614;2023-04-06T01:14:04;12.10;99.90
7349;DHT22;13010;-33.424;-70.614;2023-04-06T01:16:53;12.00;99.90
7349;DHT22;13010;-33.424;-70.614;2023-04-06T01:19:44;12.00;99.90
7349;DHT22;13010;-33.424;-70.614;2023-04-06T01:22:37;12.00;99.90
7349;DHT22;13010;-33.424;-70.614;2023-04-06T01:25:29;12.10;99.90
7349;DHT22;13010;-33.424;-70.614;2023-04-06T01:28:17;12.00;99.90
7349;DHT22;13010;-33.424;-70.614;2023-04-06T01:31:07;12.00;99.90
7349;DHT22;13010;-33.424;-70.614;2023-04-06T01:33:56;12.00;99.90
7349;DHT22;13010;-33.424;-70.614;2023-04-06T01:36:46;12.00;99.90
7349;DHT22;13010;-33.424;-70.614;2023-04-06T01:39:36;11.80;99.90
7349;DHT22;13010;-33.424;-70.614;2023-04-06T01:42:25;11.80;99.90
7349;DHT22;13010;-33.424;-70.614;2023-04-06T01:45:14;11.80;99.90
7349;DHT22;13010;-33.424;-70.614;2023-04-06T01:48:03;11.80;99.90
7349;DHT22;13010;-33.424;-70.614;2023-04-06T01:50:52;11.70;99.90
7349;DHT22;13010;-33.424;-70.614;2023-04-06T01:53:41;11.50;99.90
7349;DHT22;13010;-33.424;-70.614;2023-04-06T01:56:31;11.50;99.90
7349;DHT22;13010;-33.424;-70.614;2023-04-06T01:59:20;11.40;99.90
7349;DHT22;13010;-33.424;-70.614;2023-04-06T02:02:09;11.30;99.90
7349;DHT22;13010;-33.424;-70.614;2023-04-06T02:04:58;11.30;99.90
7349;DHT22;13010;-33.424;-70.614;2023-04-06T02:07:47;11.30;99.90
7349;DHT22;13010;-33.424;-70.614;2023-04-06T02:10:37;11.10;99.90
7349;DHT22;13010;-33.424;-70.614;2023-04-06T02:13:28;10.90;99.90
7349;DHT22;13010;-33.424;-70.614;2023-04-06T02:16:17;10.90;99.90
7349;DHT22;13010;-33.424;-70.614;2023-04-06T02:19:06;11.00;99.90
7349;DHT22;13010;-33.424;-70.614;2023-04-06T02:21:54;10.90;99.90
7349;DHT22;13010;-33.424;-70.614;2023-04-06T02:24:42;10.80;99.90
7349;DHT22;13010;-33.424;-70.614;2023-04-06T02:27:31;10.80;99.90
7349;DHT22;13010;-33.424;-70.614;2023-04-06T02:30:22;10.80;99.90
7349;DHT22;13010;-33.424;-70.614;2023-04-06T02:33:12;10.90;99.90
7349;DHT22;13010;-33.424;-70.614;2023-04-06T02:36:00;10.90;99.90
7349;DHT22;13010;-33.424;-70.614;2023-04-06T02:38:49;10.90;99.90
7349;DHT22;13010;-33.424;-70.614;2023-04-06T02:41:38;10.70;99.90
7349;DHT22;13010;-33.424;-70.614;2023-04-06T02:44:27;10.70;99.90
7349;DHT22;13010;-33.424;-70.614;2023-04-06T02:47:17;10.60;99.90
7349;DHT22;13010;-33.424;-70.614;2023-04-06T02:50:07;10.50;99.90
7349;DHT22;13010;-33.424;-70.614;2023-04-06T02:52:56;10.60;99.90
7349;DHT22;13010;-33.424;-70.614;2023-04-06T02:55:45;10.80;99.90
7349;DHT22;13010;-33.424;-70.614;2023-04-06T02:58:36;10.90;99.90
7349;DHT22;13010;-33.424;-70.614;2023-04-06T03:01:25;10.90;99.90
7349;DHT22;13010;-33.424;-70.614;2023-04-06T03:04:16;11.00;99.90
7349;DHT22;13010;-33.424;-70.614;2023-04-06T03:07:05;10.90;99.90
7349;DHT22;13010;-33.424;-70.614;2023-04-06T03:09:57;10.80;99.90
7349;DHT22;13010;-33.424;-70.614;2023-04-06T03:12:46;10.70;99.90
7349;DHT22;13010;-33.424;-70.614;2023-04-06T03:15:35;10.60;99.90
7349;DHT22;13010;-33.424;-70.614;2023-04-06T03:18:24;10.40;99.90
7349;DHT22;13010;-33.424;-70.614;2023-04-06T03:21:16;10.40;99.90
7349;DHT22;13010;-33.424;-70.614;2023-04-06T03:24:05;10.50;99.90
7349;DHT22;13010;-33.424;-70.614;2023-04-06T03:26:54;10.50;99.90
7349;DHT22;13010;-33.424;-70.614;2023-04-06T03:29:43;10.40;99.90
7349;DHT22;13010;-33.424;-70.614;2023-04-06T03:32:34;10.50;99.90
7349;DHT22;13010;-33.424;-70.614;2023-04-06T03:35:23;10.60;99.90
7349;DHT22;13010;-33.424;-70.614;2023-04-06T03:38:14;10.60;99.90
7349;DHT22;13010;-33.424;-70.614;2023-04-06T03:41:03;10.50;99.90
7349;DHT22;13010;-33.424;-70.614;2023-04-06T03:43:52;10.30;99.90
7349;DHT22;13010;-33.424;-70.614;2023-04-06T03:46:41;10.10;99.90
7349;DHT22;13010;-33.424;-70.614;2023-04-06T03:49:30;10.20;99.90
7349;DHT22;13010;-33.424;-70.614;2023-04-06T03:52:19;10.10;99.90
7349;DHT22;13010;-33.424;-70.614;2023-04-06T03:55:11;10.10;99.90
7349;DHT22;13010;-33.424;-70.614;2023-04-06T03:58:00;10.10;99.90
7349;DHT22;13010;-33.424;-70.614;2023-04-06T04:00:48;10.00;99.90
7349;DHT22;13010;-33.424;-70.614;2023-04-06T04:03:37;10.00;99.90
7349;DHT22;13010;-33.424;-70.614;2023-04-06T04:06:26;9.90;99.90
7349;DHT22;13010;-33.424;-70.614;2023-04-06T04:09:14;9.70;99.90
7349;DHT22;13010;-33.424;-70.614;2023-04-06T04:12:06;9.60;99.90
7349;DHT22;13010;-33.424;-70.614;2023-04-06T04:14:54;9.60;99.90
7349;DHT22;13010;-33.424;-70.614;2023-04-06T04:17:43;9.60;99.90
7349;DHT22;13010;-33.424;-70.614;2023-04-06T04:20:34;9.50;99.90
7349;DHT22;13010;-33.424;-70.614;2023-04-06T04:23:23;9.70;99.90
7349;DHT22;13010;-33.424;-70.614;2023-04-06T04:26:11;9.60;99.90
7349;DHT22;13010;-33.424;-70.614;2023-04-06T04:29:02;9.60;99.90
7349;DHT22;13010;-33.424;-70.614;2023-04-06T04:31:51;9.50;99.90
7349;DHT22;13010;-33.424;-70.614;2023-04-06T04:34:39;9.50;99.90
7349;DHT22;13010;-33.424;-70.614;2023-04-06T04:37:28;9.60;99.90
7349;DHT22;13010;-33.424;-70.614;2023-04-06T04:40:17;9.60;99.90
7349;DHT22;13010;-33.424;-70.614;2023-04-06T04:43:06;9.70;99.90
7349;DHT22;13010;-33.424;-70.614;2023-04-06T04:45:56;9.60;99.90
7349;DHT22;13010;-33.424;-70.614;2023-04-06T04:48:45;9.70;99.90
7349;DHT22;13010;-33.424;-70.614;2023-04-06T04:51:34;9.70;99.90
7349;DHT22;13010;-33.424;-70.614;2023-04-06T04:54:22;9.70;99.90
7349;DHT22;13010;-33.424;-70.614;2023-04-06T04:57:12;9.50;99.90
7349;DHT22;13010;-33.424;-70.614;2023-04-06T05:00:01;9.50;99.90
7349;DHT22;13010;-33.424;-70.614;2023-04-06T05:02:52;9.50;99.90
7349;DHT22;13010;-33.424;-70.614;2023-04-06T05:05:41;9.70;99.90
7349;DHT22;13010;-33.424;-70.614;2023-04-06T05:08:29;9.70;99.90
7349;DHT22;13010;-33.424;-70.614;2023-04-06T05:11:17;9.60;99.90
7349;DHT22;13010;-33.424;-70.614;2023-04-06T05:14:07;9.90;99.90
7349;DHT22;13010;-33.424;-70.614;2023-04-06T05:16:55;10.00;99.90
7349;DHT22;13010;-33.424;-70.614;2023-04-06T05:19:49;9.80;99.90
7349;DHT22;13010;-33.424;-70.614;2023-04-06T05:22:37;9.50;99.90
7349;DHT22;13010;-33.424;-70.614;2023-04-06T05:25:27;9.50;99.90
7349;DHT22;13010;-33.424;-70.614;2023-04-06T05:28:16;9.70;99.90
7349;DHT22;13010;-33.424;-70.614;2023-04-06T05:31:04;10.10;99.90
7349;DHT22;13010;-33.424;-70.614;2023-04-06T05:33:53;10.40;99.90
7349;DHT22;13010;-33.424;-70.614;2023-04-06T05:36:44;10.50;99.90
7349;DHT22;13010;-33.424;-70.614;2023-04-06T05:39:32;10.40;99.90
7349;DHT22;13010;-33.424;-70.614;2023-04-06T05:42:21;10.40;99.90
7349;DHT22;13010;-33.424;-70.614;2023-04-06T05:45:10;10.50;99.90
7349;DHT22;13010;-33.424;-70.614;2023-04-06T05:48:02;10.40;99.90
7349;DHT22;13010;-33.424;-70.614;2023-04-06T05:50:51;10.10;99.90
7349;DHT22;13010;-33.424;-70.614;2023-04-06T05:53:42;9.80;99.90
7349;DHT22;13010;-33.424;-70.614;2023-04-06T05:56:32;9.50;99.90
7349;DHT22;13010;-33.424;-70.614;2023-04-06T05:59:20;9.30;99.90
7349;DHT22;13010;-33.424;-70.614;2023-04-06T06:02:09;9.20;99.90
7349;DHT22;13010;-33.424;-70.614;2023-04-06T06:04:58;9.10;99.90
7349;DHT22;13010;-33.424;-70.614;2023-04-06T06:07:47;9.00;99.90
7349;DHT22;13010;-33.424;-70.614;2023-04-06T06:10:39;8.90;99.90
7349;DHT22;13010;-33.424;-70.614;2023-04-06T06:13:29;9.00;99.90
7349;DHT22;13010;-33.424;-70.614;2023-04-06T06:16:18;9.20;99.90
7349;DHT22;13010;-33.424;-70.614;2023-04-06T06:19:07;9.20;99.90
7349;DHT22;13010;-33.424;-70.614;2023-04-06T06:21:57;9.10;99.90
7349;DHT22;13010;-33.424;-70.614;2023-04-06T06:24:48;8.90;99.90
7349;DHT22;13010;-33.424;-70.614;2023-04-06T06:27:39;8.60;99.90
7349;DHT22;13010;-33.424;-70.614;2023-04-06T06:30:28;8.50;99.90
7349;DHT22;13010;-33.424;-70.614;2023-04-06T06:33:17;8.40;99.90
7349;DHT22;13010;-33.424;-70.614;2023-04-06T06:36:07;8.40;99.90
7349;DHT22;13010;-33.424;-70.614;2023-04-06T06:38:57;8.40;99.90
7349;DHT22;13010;-33.424;-70.614;2023-04-06T06:41:46;8.50;99.90
7349;DHT22;13010;-33.424;-70.614;2023-04-06T06:44:39;8.50;99.90
7349;DHT22;13010;-33.424;-70.614;2023-04-06T06:47:28;8.40;99.90
7349;DHT22;13010;-33.424;-70.614;2023-04-06T06:50:18;8.40;99.90
7349;DHT22;13010;-33.424;-70.614;2023-04-06T06:53:07;8.40;99.90
7349;DHT22;13010;-33.424;-70.614;2023-04-06T06:55:57;8.70;99.90
7349;DHT22;13010;-33.424;-70.614;2023-04-06T06:58:46;8.80;99.90
7349;DHT22;13010;-33.424;-70.614;2023-04-06T07:01:38;8.60;99.90
7349;DHT22;13010;-33.424;-70.614;2023-04-06T07:04:27;8.40;99.90
7349;DHT22;13010;-33.424;-70.614;2023-04-06T07:07:16;8.10;99.90
7349;DHT22;13010;-33.424;-70.614;2023-04-06T07:10:07;8.10;99.90
7349;DHT22;13010;-33.424;-70.614;2023-04-06T07:12:56;8.20;99.90
7349;DHT22;13010;-33.424;-70.614;2023-04-06T07:15:46;8.30;99.90
7349;DHT22;13010;-33.424;-70.614;2023-04-06T07:18:37;8.20;99.90
7349;DHT22;13010;-33.424;-70.614;2023-04-06T07:21:27;8.10;99.90
7349;DHT22;13010;-33.424;-70.614;2023-04-06T07:24:16;8.20;99.90
7349;DHT22;13010;-33.424;-70.614;2023-04-06T07:27:06;8.00;99.90
7349;DHT22;13010;-33.424;-70.614;2023-04-06T07:29:56;7.90;99.90
7349;DHT22;13010;-33.424;-70.614;2023-04-06T07:32:46;7.80;99.90
7349;DHT22;13010;-33.424;-70.614;2023-04-06T07:35:37;7.90;99.90
7349;DHT22;13010;-33.424;-70.614;2023-04-06T07:38:27;7.90;99.90
7349;DHT22;13010;-33.424;-70.614;2023-04-06T07:41:16;8.00;99.90
7349;DHT22;13010;-33.424;-70.614;2023-04-06T07:44:05;7.90;99.90
7349;DHT22;13010;-33.424;-70.614;2023-04-06T07:46:56;8.10;99.90
7349;DHT22;13010;-33.424;-70.614;2023-04-06T07:49:46;8.00;99.90
7349;DHT22;13010;-33.424;-70.614;2023-04-06T07:52:38;8.00;99.90
7349;DHT22;13010;-33.424;-70.614;2023-04-06T07:55:28;7.90;99.90
7349;DHT22;13010;-33.424;-70.614;2023-04-06T07:58:18;8.10;99.90
7349;DHT22;13010;-33.424;-70.614;2023-04-06T08:01:08;8.10;99.90
7349;DHT22;13010;-33.424;-70.614;2023-04-06T08:03:58;8.20;99.90
7349;DHT22;13010;-33.424;-70.614;2023-04-06T08:06:48;8.20;99.90
7349;DHT22;13010;-33.424;-70.614;2023-04-06T08:09:40;7.90;99.90
7349;DHT22;13010;-33.424;-70.614;2023-04-06T08:12:30;7.70;99.90
7349;DHT22;13010;-33.424;-70.614;2023-04-06T08:15:19;7.60;99.90
7349;DHT22;13010;-33.424;-70.614;2023-04-06T08:18:09;7.70;99.90
7349;DHT22;13010;-33.424;-70.614;2023-04-06T08:20:59;8.00;99.90
7349;DHT22;13010;-33.424;-70.614;2023-04-06T08:23:49;7.90;99.90
7349;DHT22;13010;-33.424;-70.614;2023-04-06T08:26:41;7.70;99.90
7349;DHT22;13010;-33.424;-70.614;2023-04-06T08:29:31;7.60;99.90
7349;DHT22;13010;-33.424;-70.614;2023-04-06T08:32:21;7.50;99.90
7349;DHT22;13010;-33.424;-70.614;2023-04-06T08:35:10;7.60;99.90
7349;DHT22;13010;-33.424;-70.614;2023-04-06T08:37:58;8.10;99.90
7349;DHT22;13010;-33.424;-70.614;2023-04-06T08:40:48;8.20;99.90
7349;DHT22;13010;-33.424;-70.614;2023-04-06T08:43:44;8.10;99.90
7349;DHT22;13010;-33.424;-70.614;2023-04-06T08:46:34;8.20;99.90
7349;DHT22;13010;-33.424;-70.614;2023-04-06T08:49:23;8.10;99.90
7349;DHT22;13010;-33.424;-70.614;2023-04-06T08:52:12;8.30;99.90
7349;DHT22;13010;-33.424;-70.614;2023-04-06T08:55:01;8.50;99.90
7349;DHT22;13010;-33.424;-70.614;2023-04-06T08:57:51;8.60;99.90
7349;DHT22;13010;-33.424;-70.614;2023-04-06T09:00:43;8.80;99.90
7349;DHT22;13010;-33.424;-70.614;2023-04-06T09:03:35;8.70;99.90
7349;DHT22;13010;-33.424;-70.614;2023-04-06T09:06:26;8.00;99.90
7349;DHT22;13010;-33.424;-70.614;2023-04-06T09:09:16;7.90;99.90
7349;DHT22;13010;-33.424;-70.614;2023-04-06T09:12:06;7.50;99.90
7349;DHT22;13010;-33.424;-70.614;2023-04-06T09:14:58;7.20;99.90
7349;DHT22;13010;-33.424;-70.614;2023-04-06T09:17:50;7.10;99.90
7349;DHT22;13010;-33.424;-70.614;2023-04-06T09:20:40;7.30;99.90
7349;DHT22;13010;-33.424;-70.614;2023-04-06T09:26:09;7.20;99.90
7349;DHT22;13010;-33.424;-70.614;2023-04-06T09:28:59;7.80;99.90
7349;DHT22;13010;-33.424;-70.614;2023-04-06T09:31:50;7.70;99.90
7349;DHT22;13010;-33.424;-70.614;2023-04-06T09:34:41;7.40;99.90
7349;DHT22;13010;-33.424;-70.614;2023-04-06T09:37:34;7.40;99.90
7349;DHT22;13010;-33.424;-70.614;2023-04-06T09:40:23;7.20;99.90
7349;DHT22;13010;-33.424;-70.614;2023-04-06T09:43:12;7.10;99.90
7349;DHT22;13010;-33.424;-70.614;2023-04-06T09:46:11;7.00;99.90
7349;DHT22;13010;-33.424;-70.614;2023-04-06T09:49:02;6.80;99.90
7349;DHT22;13010;-33.424;-70.614;2023-04-06T09:51:55;6.70;99.90
7349;DHT22;13010;-33.424;-70.614;2023-04-06T09:54:49;6.60;99.90
7349;DHT22;13010;-33.424;-70.614;2023-04-06T09:57:44;6.60;99.90
7349;DHT22;13010;-33.424;-70.614;2023-04-06T10:00:42;6.60;99.90
7349;DHT22;13010;-33.424;-70.614;2023-04-06T10:03:40;6.50;99.90
7349;DHT22;13010;-33.424;-70.614;2023-04-06T10:06:34;6.30;99.90
7349;DHT22;13010;-33.424;-70.614;2023-04-06T10:09:29;6.30;99.90
7349;DHT22;13010;-33.424;-70.614;2023-04-06T10:12:22;6.20;99.90
7349;DHT22;13010;-33.424;-70.614;2023-04-06T10:15:12;6.20;99.90
7349;DHT22;13010;-33.424;-70.614;2023-04-06T10:18:03;6.30;99.90
7349;DHT22;13010;-33.424;-70.614;2023-04-06T10:20:56;6.40;99.90
7349;DHT22;13010;-33.424;-70.614;2023-04-06T10:23:49;6.50;99.90
7349;DHT22;13010;-33.424;-70.614;2023-04-06T10:26:42;6.50;99.90
7349;DHT22;13010;-33.424;-70.614;2023-04-06T10:29:43;6.40;99.90
7349;DHT22;13010;-33.424;-70.614;2023-04-06T10:32:37;6.50;99.90
7349;DHT22;13010;-33.424;-70.614;2023-04-06T10:35:37;6.50;99.90
7349;DHT22;13010;-33.424;-70.614;2023-04-06T10:38:37;6.60;99.90
7349;DHT22;13010;-33.424;-70.614;2023-04-06T10:41:33;6.70;99.90
7349;DHT22;13010;-33.424;-70.614;2023-04-06T10:44:30;6.60;99.90
7349;DHT22;13010;-33.424;-70.614;2023-04-06T10:47:19;6.50;99.90
7349;DHT22;13010;-33.424;-70.614;2023-04-06T10:50:10;6.40;99.90
7349;DHT22;13010;-33.424;-70.614;2023-04-06T10:53:00;6.40;99.90
7349;DHT22;13010;-33.424;-70.614;2023-04-06T10:55:51;6.30;99.90
7349;DHT22;13010;-33.424;-70.614;2023-04-06T10:58:45;6.30;99.90
7349;DHT22;13010;-33.424;-70.614;2023-04-06T11:01:38;6.50;99.90
7349;DHT22;13010;-33.424;-70.614;2023-04-06T11:04:27;6.60;99.90
7349;DHT22;13010;-33.424;-70.614;2023-04-06T11:07:24;6.50;99.90
7349;DHT22;13010;-33.424;-70.614;2023-04-06T11:10:21;6.50;99.90
7349;DHT22;13010;-33.424;-70.614;2023-04-06T11:13:11;6.70;99.90
7349;DHT22;13010;-33.424;-70.614;2023-04-06T11:16:00;6.80;99.90
7349;DHT22;13010;-33.424;-70.614;2023-04-06T11:18:56;7.00;99.90
7349;DHT22;13010;-33.424;-70.614;2023-04-06T11:21:46;7.20;99.90
7349;DHT22;13010;-33.424;-70.614;2023-04-06T11:24:36;7.30;99.90
7349;DHT22;13010;-33.424;-70.614;2023-04-06T11:27:25;7.50;99.90
7349;DHT22;13010;-33.424;-70.614;2023-04-06T11:30:17;7.70;99.90
7349;DHT22;13010;-33.424;-70.614;2023-04-06T11:33:06;7.80;99.90
7349;DHT22;13010;-33.424;-70.614;2023-04-06T11:35:57;8.00;99.90
7349;DHT22;13010;-33.424;-70.614;2023-04-06T11:38:48;8.40;99.90
7349;DHT22;13010;-33.424;-70.614;2023-04-06T11:41:37;12.70;99.90
7349;DHT22;13010;-33.424;-70.614;2023-04-06T11:44:33;17.00;99.90
7349;DHT22;13010;-33.424;-70.614;2023-04-06T11:47:28;19.80;99.90
7349;DHT22;13010;-33.424;-70.614;2023-04-06T11:50:17;22.20;99.90
7349;DHT22;13010;-33.424;-70.614;2023-04-06T11:53:09;24.00;99.90
7349;DHT22;13010;-33.424;-70.614;2023-04-06T11:55:58;25.20;99.90
7349;DHT22;13010;-33.424;-70.614;2023-04-06T11:58:47;26.40;99.90
7349;DHT22;13010;-33.424;-70.614;2023-04-06T12:01:45;27.40;99.90
7349;DHT22;13010;-33.424;-70.614;2023-04-06T12:04:34;28.10;85.80
7349;DHT22;13010;-33.424;-70.614;2023-04-06T12:07:23;28.70;71.80
7349;DHT22;13010;-33.424;-70.614;2023-04-06T12:10:15;29.10;61.10
7349;DHT22;13010;-33.424;-70.614;2023-04-06T12:13:04;29.10;53.60
7349;DHT22;13010;-33.424;-70.614;2023-04-06T12:15:52;29.80;46.50
7349;DHT22;13010;-33.424;-70.614;2023-04-06T12:18:42;30.50;40.50
7349;DHT22;13010;-33.424;-70.614;2023-04-06T12:21:33;31.40;35.30
7349;DHT22;13010;-33.424;-70.614;2023-04-06T12:24:23;32.30;32.10
7349;DHT22;13010;-33.424;-70.614;2023-04-06T12:27:14;33.20;28.60
7349;DHT22;13010;-33.424;-70.614;2023-04-06T12:30:03;34.40;21.70
7349;DHT22;13010;-33.424;-70.614;2023-04-06T12:32:52;33.80;21.00
7349;DHT22;13010;-33.424;-70.614;2023-04-06T12:35:41;35.30;17.70
7349;DHT22;13010;-33.424;-70.614;2023-04-06T12:38:31;35.50;15.80
7349;DHT22;13010;-33.424;-70.614;2023-04-06T12:41:19;35.50;15.50
7349;DHT22;13010;-33.424;-70.614;2023-04-06T12:44:10;37.20;14.50
7349;DHT22;13010;-33.424;-70.614;2023-04-06T12:46:59;37.70;11.30
7349;DHT22;13010;-33.424;-70.614;2023-04-06T12:49:48;38.20;10.90
7349;DHT22;13010;-33.424;-70.614;2023-04-06T12:52:37;37.70;11.30
7349;DHT22;13010;-33.424;-70.614;2023-04-06T12:55:26;38.90;8.70
7349;DHT22;13010;-33.424;-70.614;2023-04-06T12:58:17;38.80;8.10
7349;DHT22;13010;-33.424;-70.614;2023-04-06T13:01:09;39.20;6.50
7349;DHT22;13010;-33.424;-70.614;2023-04-06T13:03:59;40.20;6.50
7349;DHT22;13010;-33.424;-70.614;2023-04-06T13:06:51;40.80;5.00
7349;DHT22;13010;-33.424;-70.614;2023-04-06T13:09:40;42.10;3.20
7349;DHT22;13010;-33.424;-70.614;2023-04-06T13:12:28;42.80;1.00
7349;DHT22;13010;-33.424;-70.614;2023-04-06T13:15:17;43.00;1.20
7349;DHT22;13010;-33.424;-70.614;2023-04-06T13:18:08;42.70;1.00
7349;DHT22;13010;-33.424;-70.614;2023-04-06T13:21:00;43.20;1.00
7349;DHT22;13010;-33.424;-70.614;2023-04-06T13:23:49;43.40;1.00
7349;DHT22;13010;-33.424;-70.614;2023-04-06T13:26:38;44.70;1.00
7349;DHT22;13010;-33.424;-70.614;2023-04-06T13:29:30;44.00;1.00
7349;DHT22;13010;-33.424;-70.614;2023-04-06T13:32:20;44.80;1.00
7349;DHT22;13010;-33.424;-70.614;2023-04-06T13:35:11;46.20;1.00
7349;DHT22;13010;-33.424;-70.614;2023-04-06T13:38:00;45.50;1.00
7349;DHT22;13010;-33.424;-70.614;2023-04-06T13:40:52;46.60;1.00
7349;DHT22;13010;-33.424;-70.614;2023-04-06T13:43:41;47.40;1.00
7349;DHT22;13010;-33.424;-70.614;2023-04-06T13:46:30;48.10;1.00
7349;DHT22;13010;-33.424;-70.614;2023-04-06T13:49:19;48.40;1.00
7349;DHT22;13010;-33.424;-70.614;2023-04-06T13:52:09;47.90;1.00
7349;DHT22;13010;-33.424;-70.614;2023-04-06T13:54:58;48.70;1.00
7349;DHT22;13010;-33.424;-70.614;2023-04-06T13:57:48;48.80;1.00
7349;DHT22;13010;-33.424;-70.614;2023-04-06T14:00:37;48.20;1.00
7349;DHT22;13010;-33.424;-70.614;2023-04-06T14:03:26;48.70;1.00
7349;DHT22;13010;-33.424;-70.614;2023-04-06T14:06:15;49.10;1.00
7349;DHT22;13010;-33.424;-70.614;2023-04-06T14:09:05;49.30;1.00
7349;DHT22;13010;-33.424;-70.614;2023-04-06T14:11:54;49.90;1.00
7349;DHT22;13010;-33.424;-70.614;2023-04-06T14:14:43;50.80;1.00
7349;DHT22;13010;-33.424;-70.614;2023-04-06T14:17:32;50.20;1.00
7349;DHT22;13010;-33.424;-70.614;2023-04-06T14:20:21;51.10;1.00
7349;DHT22;13010;-33.424;-70.614;2023-04-06T14:23:10;51.00;1.00
7349;DHT22;13010;-33.424;-70.614;2023-04-06T14:26:04;51.10;1.00
7349;DHT22;13010;-33.424;-70.614;2023-04-06T14:28:53;50.60;1.00
7349;DHT22;13010;-33.424;-70.614;2023-04-06T14:31:42;51.00;1.00
7349;DHT22;13010;-33.424;-70.614;2023-04-06T14:34:34;51.40;1.00
7349;DHT22;13010;-33.424;-70.614;2023-04-06T14:37:25;51.00;1.00
7349;DHT22;13010;-33.424;-70.614;2023-04-06T14:40:14;52.80;1.00
7349;DHT22;13010;-33.424;-70.614;2023-04-06T14:43:05;52.80;1.00
7349;DHT22;13010;-33.424;-70.614;2023-04-06T14:45:53;53.60;1.00
7349;DHT22;13010;-33.424;-70.614;2023-04-06T14:48:42;53.20;1.00
7349;DHT22;13010;-33.424;-70.614;2023-04-06T14:51:33;52.20;1.00
7349;DHT22;13010;-33.424;-70.614;2023-04-06T14:54:22;52.90;1.00
7349;DHT22;13010;-33.424;-70.614;2023-04-06T14:57:11;52.10;1.00
7349;DHT22;13010;-33.424;-70.614;2023-04-06T15:00:01;52.30;1.00
7349;DHT22;13010;-33.424;-70.614;2023-04-06T15:02:50;50.80;1.00
7349;DHT22;13010;-33.424;-70.614;2023-04-06T15:05:39;52.30;1.00
7349;DHT22;13010;-33.424;-70.614;2023-04-06T15:08:28;52.70;1.00
7349;DHT22;13010;-33.424;-70.614;2023-04-06T15:11:17;53.70;1.00
7349;DHT22;13010;-33.424;-70.614;2023-04-06T15:14:07;52.50;1.00
7349;DHT22;13010;-33.424;-70.614;2023-04-06T15:16:58;54.10;1.00
7349;DHT22;13010;-33.424;-70.614;2023-04-06T15:19:47;53.40;1.00
7349;DHT22;13010;-33.424;-70.614;2023-04-06T15:22:36;52.20;1.00
7349;DHT22;13010;-33.424;-70.614;2023-04-06T15:25:25;51.90;1.00
7349;DHT22;13010;-33.424;-70.614;2023-04-06T15:28:14;54.30;1.00
7349;DHT22;13010;-33.424;-70.614;2023-04-06T15:31:03;52.50;1.00
7349;DHT22;13010;-33.424;-70.614;2023-04-06T15:34:02;52.10;1.00
7349;DHT22;13010;-33.424;-70.614;2023-04-06T15:36:51;50.80;1.00
7349;DHT22;13010;-33.424;-70.614;2023-04-06T15:39:44;50.00;1.00
7349;DHT22;13010;-33.424;-70.614;2023-04-06T15:42:35;51.90;1.00
7349;DHT22;13010;-33.424;-70.614;2023-04-06T15:45:25;52.70;1.00
7349;DHT22;13010;-33.424;-70.614;2023-04-06T15:48:14;52.60;1.00
7349;DHT22;13010;-33.424;-70.614;2023-04-06T15:51:06;51.30;1.00
7349;DHT22;13010;-33.424;-70.614;2023-04-06T15:53:55;51.80;1.00
7349;DHT22;13010;-33.424;-70.614;2023-04-06T15:56:44;48.90;1.00
7349;DHT22;13010;-33.424;-70.614;2023-04-06T15:59:33;40.30;1.00
7349;DHT22;13010;-33.424;-70.614;2023-04-06T16:02:21;36.60;1.00
7349;DHT22;13010;-33.424;-70.614;2023-04-06T16:05:10;39.30;1.00
7349;DHT22;13010;-33.424;-70.614;2023-04-06T16:08:01;43.30;1.00
7349;DHT22;13010;-33.424;-70.614;2023-04-06T16:10:50;46.80;1.00
7349;DHT22;13010;-33.424;-70.614;2023-04-06T16:13:39;49.30;1.00
7349;DHT22;13010;-33.424;-70.614;2023-04-06T16:16:28;49.10;1.00
7349;DHT22;13010;-33.424;-70.614;2023-04-06T16:19:17;51.00;1.00
7349;DHT22;13010;-33.424;-70.614;2023-04-06T16:22:06;50.20;1.00
7349;DHT22;13010;-33.424;-70.614;2023-04-06T16:24:59;49.70;1.00
7349;DHT22;13010;-33.424;-70.614;2023-04-06T16:27:48;48.50;1.00
7349;DHT22;13010;-33.424;-70.614;2023-04-06T16:30:38;48.30;1.00
7349;DHT22;13010;-33.424;-70.614;2023-04-06T16:33:27;50.00;1.00
7349;DHT22;13010;-33.424;-70.614;2023-04-06T16:36:21;50.50;1.00
7349;DHT22;13010;-33.424;-70.614;2023-04-06T16:39:13;51.30;1.00
7349;DHT22;13010;-33.424;-70.614;2023-04-06T16:42:04;51.90;1.00
7349;DHT22;13010;-33.424;-70.614;2023-04-06T16:44:53;49.60;1.00
7349;DHT22;13010;-33.424;-70.614;2023-04-06T16:47:42;49.50;1.00
7349;DHT22;13010;-33.424;-70.614;2023-04-06T16:50:34;47.70;1.00
7349;DHT22;13010;-33.424;-70.614;2023-04-06T16:53:26;45.70;1.00
7349;DHT22;13010;-33.424;-70.614;2023-04-06T16:56:15;44.70;1.00
7349;DHT22;13010;-33.424;-70.614;2023-04-06T16:59:07;44.00;1.00
7349;DHT22;13010;-33.424;-70.614;2023-04-06T17:01:56;41.40;1.00
7349;DHT22;13010;-33.424;-70.614;2023-04-06T17:04:44;38.30;1.00
7349;DHT22;13010;-33.424;-70.614;2023-04-06T17:07:33;33.20;8.60
7349;DHT22;13010;-33.424;-70.614;2023-04-06T17:10:22;30.70;27.80
7349;DHT22;13010;-33.424;-70.614;2023-04-06T17:13:11;29.40;76.60
7349;DHT22;13010;-33.424;-70.614;2023-04-06T17:16:02;28.80;96.30
7349;DHT22;13010;-33.424;-70.614;2023-04-06T17:18:51;27.70;99.90
7349;DHT22;13010;-33.424;-70.614;2023-04-06T17:21:40;27.60;99.90
7349;DHT22;13010;-33.424;-70.614;2023-04-06T17:24:29;27.90;99.90
7349;DHT22;13010;-33.424;-70.614;2023-04-06T17:27:18;28.40;99.90
7349;DHT22;13010;-33.424;-70.614;2023-04-06T17:30:10;32.30;94.80
7349;DHT22;13010;-33.424;-70.614;2023-04-06T17:33:00;32.60;78.20